sensor_id;sensor_type;location;lat;lon;timestamp;P1;durP1;ratioP1;P2;durP2;ratioP2
29162;SDS011;20331;53.144;8.208;2024-02-14T00:02:43;5.97;;;3.08;;
29162;SDS011;20331;53.144;8.208;2024-02-14T00:08:06;8.27;;;3.60;;
29162;SDS011;20331;53.144;8.208;2024-02-14T00:13:29;6.65;;;4.00;;
29162;SDS011;20331;53.144;8.208;2024-02-14T00:18:50;7.57;;;4.40;;
29162;SDS011;20331;53.144;8.208;2024-02-14T00:24:12;8.93;;;4.38;;
29162;SDS011;20331;53.144;8.208;2024-02-14T00:29:34;7.25;;;4.05;;
29162;SDS011;20331;53.144;8.208;2024-02-14T00:34:56;11.90;;;5.25;;
29162;SDS011;20331;53.144;8.208;2024-02-14T00:40:18;13.38;;;5.70;;
29162;SDS011;20331;53.144;8.208;2024-02-14T00:45:39;13.90;;;5.35;;
29162;SDS011;20331;53.144;8.208;2024-02-14T00:51:01;11.30;;;5.97;;
29162;SDS011;20331;53.144;8.208;2024-02-14T00:56:23;13.23;;;6.10;;
29162;SDS011;20331;53.144;8.208;2024-02-14T01:01:45;10.80;;;6.72;;
29162;SDS011;20331;53.144;8.208;2024-02-14T01:07:07;8.55;;;5.95;;
29162;SDS011;20331;53.144;8.208;2024-02-14T01:12:29;10.10;;;6.13;;
29162;SDS011;20331;53.144;8.208;2024-02-14T01:17:52;12.90;;;6.18;;
29162;SDS011;20331;53.144;8.208;2024-02-14T01:23:14;13.30;;;6.95;;
29162;SDS011;20331;53.144;8.208;2024-02-14T01:28:35;12.02;;;6.18;;
29162;SDS011;20331;53.144;8.208;2024-02-14T01:33:57;11.02;;;6.07;;
29162;SDS011;20331;53.144;8.208;2024-02-14T01:39:20;7.95;;;6.25;;
29162;SDS011;20331;53.144;8.208;2024-02-14T01:44:43;12.10;;;6.30;;
29162;SDS011;20331;53.144;8.208;2024-02-14T01:50:05;15.00;;;6.93;;
29162;SDS011;20331;53.144;8.208;2024-02-14T01:55:30;13.05;;;6.80;;
29162;SDS011;20331;53.144;8.208;2024-02-14T02:00:53;11.57;;;6.65;;
29162;SDS011;20331;53.144;8.208;2024-02-14T02:06:19;12.65;;;7.40;;
29162;SDS011;20331;53.144;8.208;2024-02-14T02:11:51;18.50;;;8.07;;
29162;SDS011;20331;53.144;8.208;2024-02-14T02:17:22;13.75;;;7.93;;
29162;SDS011;20331;53.144;8.208;2024-02-14T02:22:45;10.57;;;8.20;;
29162;SDS011;20331;53.144;8.208;2024-02-14T02:28:09;14.55;;;8.40;;
29162;SDS011;20331;53.144;8.208;2024-02-14T02:33:31;17.50;;;8.60;;
29162;SDS011;20331;53.144;8.208;2024-02-14T02:38:53;15.57;;;9.05;;
29162;SDS011;20331;53.144;8.208;2024-02-14T02:44:15;17.85;;;10.07;;
29162;SDS011;20331;53.144;8.208;2024-02-14T02:49:37;14.75;;;10.40;;
29162;SDS011;20331;53.144;8.208;2024-02-14T02:54:59;14.55;;;9.63;;
29162;SDS011;20331;53.144;8.208;2024-02-14T03:00:22;15.25;;;10.93;;
29162;SDS011;20331;53.144;8.208;2024-02-14T03:05:44;19.80;;;10.77;;
29162;SDS011;20331;53.144;8.208;2024-02-14T03:11:07;16.48;;;10.85;;
29162;SDS011;20331;53.144;8.208;2024-02-14T03:16:29;12.48;;;10.68;;
29162;SDS011;20331;53.144;8.208;2024-02-14T03:21:51;13.20;;;11.27;;
29162;SDS011;20331;53.144;8.208;2024-02-14T03:27:13;14.43;;;11.75;;
29162;SDS011;20331;53.144;8.208;2024-02-14T03:32:34;16.67;;;12.35;;
29162;SDS011;20331;53.144;8.208;2024-02-14T03:37:56;15.77;;;11.38;;
29162;SDS011;20331;53.144;8.208;2024-02-14T03:43:18;14.43;;;11.48;;
29162;SDS011;20331;53.144;8.208;2024-02-14T03:48:39;14.95;;;10.82;;
29162;SDS011;20331;53.144;8.208;2024-02-14T03:54:03;17.42;;;12.07;;
29162;SDS011;20331;53.144;8.208;2024-02-14T03:59:25;16.35;;;11.25;;
29162;SDS011;20331;53.144;8.208;2024-02-14T04:04:47;19.48;;;11.35;;
29162;SDS011;20331;53.144;8.208;2024-02-14T04:10:08;13.82;;;11.07;;
29162;SDS011;20331;53.144;8.208;2024-02-14T04:15:30;16.38;;;11.65;;
29162;SDS011;20331;53.144;8.208;2024-02-14T04:20:53;13.60;;;11.95;;
29162;SDS011;20331;53.144;8.208;2024-02-14T04:26:18;15.98;;;12.07;;
29162;SDS011;20331;53.144;8.208;2024-02-14T04:31:41;16.27;;;12.27;;
29162;SDS011;20331;53.144;8.208;2024-02-14T04:37:04;17.48;;;12.52;;
29162;SDS011;20331;53.144;8.208;2024-02-14T04:42:31;17.23;;;12.65;;
29162;SDS011;20331;53.144;8.208;2024-02-14T04:47:53;13.50;;;12.10;;
29162;SDS011;20331;53.144;8.208;2024-02-14T04:53:15;16.20;;;12.10;;
29162;SDS011;20331;53.144;8.208;2024-02-14T04:58:37;15.65;;;12.60;;
29162;SDS011;20331;53.144;8.208;2024-02-14T05:03:59;15.00;;;12.80;;
29162;SDS011;20331;53.144;8.208;2024-02-14T05:09:21;14.43;;;12.57;;
29162;SDS011;20331;53.144;8.208;2024-02-14T05:14:43;14.02;;;12.02;;
29162;SDS011;20331;53.144;8.208;2024-02-14T05:20:05;15.32;;;11.95;;
29162;SDS011;20331;53.144;8.208;2024-02-14T05:25:30;15.52;;;12.70;;
29162;SDS011;20331;53.144;8.208;2024-02-14T05:30:54;14.45;;;11.98;;
29162;SDS011;20331;53.144;8.208;2024-02-14T05:36:17;14.63;;;11.32;;
29162;SDS011;20331;53.144;8.208;2024-02-14T05:41:38;14.25;;;11.07;;
29162;SDS011;20331;53.144;8.208;2024-02-14T05:47:00;11.85;;;10.25;;
29162;SDS011;20331;53.144;8.208;2024-02-14T05:52:22;11.77;;;10.27;;
29162;SDS011;20331;53.144;8.208;2024-02-14T05:57:44;12.82;;;10.18;;
29162;SDS011;20331;53.144;8.208;2024-02-14T06:03:05;10.60;;;9.30;;
29162;SDS011;20331;53.144;8.208;2024-02-14T06:08:28;10.80;;;9.20;;
29162;SDS011;20331;53.144;8.208;2024-02-14T06:13:50;12.43;;;9.25;;
29162;SDS011;20331;53.144;8.208;2024-02-14T06:19:12;9.63;;;8.70;;
29162;SDS011;20331;53.144;8.208;2024-02-14T06:24:34;9.68;;;8.68;;
29162;SDS011;20331;53.144;8.208;2024-02-14T06:29:55;9.60;;;7.88;;
29162;SDS011;20331;53.144;8.208;2024-02-14T06:35:18;8.50;;;7.30;;
29162;SDS011;20331;53.144;8.208;2024-02-14T06:40:42;7.43;;;6.63;;
29162;SDS011;20331;53.144;8.208;2024-02-14T06:46:05;7.35;;;6.43;;
29162;SDS011;20331;53.144;8.208;2024-02-14T06:51:27;8.98;;;6.22;;
29162;SDS011;20331;53.144;8.208;2024-02-14T06:56:50;8.15;;;6.72;;
29162;SDS011;20331;53.144;8.208;2024-02-14T07:02:12;7.45;;;6.68;;
29162;SDS011;20331;53.144;8.208;2024-02-14T07:07:34;6.75;;;6.03;;
29162;SDS011;20331;53.144;8.208;2024-02-14T07:12:57;8.73;;;7.05;;
29162;SDS011;20331;53.144;8.208;2024-02-14T07:18:19;9.38;;;6.55;;
29162;SDS011;20331;53.144;8.208;2024-02-14T07:23:41;6.85;;;6.15;;
29162;SDS011;20331;53.144;8.208;2024-02-14T07:29:03;7.70;;;6.35;;
29162;SDS011;20331;53.144;8.208;2024-02-14T07:34:25;7.47;;;5.80;;
29162;SDS011;20331;53.144;8.208;2024-02-14T07:39:47;5.95;;;5.35;;
29162;SDS011;20331;53.144;8.208;2024-02-14T07:45:09;6.30;;;5.60;;
29162;SDS011;20331;53.144;8.208;2024-02-14T07:50:31;5.63;;;4.93;;
29162;SDS011;20331;53.144;8.208;2024-02-14T07:55:53;6.25;;;5.43;;
29162;SDS011;20331;53.144;8.208;2024-02-14T08:01:16;6.07;;;5.10;;
29162;SDS011;20331;53.144;8.208;2024-02-14T08:06:37;5.78;;;4.68;;
29162;SDS011;20331;53.144;8.208;2024-02-14T08:11:59;5.45;;;4.15;;
29162;SDS011;20331;53.144;8.208;2024-02-14T08:17:21;6.10;;;4.22;;
29162;SDS011;20331;53.144;8.208;2024-02-14T08:22:43;4.85;;;4.30;;
29162;SDS011;20331;53.144;8.208;2024-02-14T08:28:05;5.30;;;4.60;;
29162;SDS011;20331;53.144;8.208;2024-02-14T08:33:29;6.20;;;4.53;;
29162;SDS011;20331;53.144;8.208;2024-02-14T08:38:51;5.35;;;4.53;;
29162;SDS011;20331;53.144;8.208;2024-02-14T08:44:13;6.43;;;4.82;;
29162;SDS011;20331;53.144;8.208;2024-02-14T08:49:35;5.57;;;4.70;;
29162;SDS011;20331;53.144;8.208;2024-02-14T08:54:56;6.18;;;4.70;;
29162;SDS011;20331;53.144;8.208;2024-02-14T09:00:18;5.20;;;4.68;;
29162;SDS011;20331;53.144;8.208;2024-02-14T09:05:41;6.55;;;5.18;;
29162;SDS011;20331;53.144;8.208;2024-02-14T09:11:04;6.90;;;5.20;;
29162;SDS011;20331;53.144;8.208;2024-02-14T09:16:43;7.95;;;5.63;;
29162;SDS011;20331;53.144;8.208;2024-02-14T09:22:07;8.38;;;5.63;;
29162;SDS011;20331;53.144;8.208;2024-02-14T09:27:29;10.10;;;6.55;;
29162;SDS011;20331;53.144;8.208;2024-02-14T09:32:50;8.95;;;6.70;;
29162;SDS011;20331;53.144;8.208;2024-02-14T09:38:12;10.20;;;6.97;;
29162;SDS011;20331;53.144;8.208;2024-02-14T09:43:36;9.27;;;7.57;;
29162;SDS011;20331;53.144;8.208;2024-02-14T09:49:03;9.10;;;6.95;;
29162;SDS011;20331;53.144;8.208;2024-02-14T09:54:26;9.05;;;7.38;;
29162;SDS011;20331;53.144;8.208;2024-02-14T09:59:48;12.07;;;7.38;;
29162;SDS011;20331;53.144;8.208;2024-02-14T10:05:12;10.07;;;7.43;;
29162;SDS011;20331;53.144;8.208;2024-02-14T10:10:34;10.35;;;7.47;;
29162;SDS011;20331;53.144;8.208;2024-02-14T10:15:56;11.65;;;7.47;;
29162;SDS011;20331;53.144;8.208;2024-02-14T10:21:18;11.32;;;8.32;;
29162;SDS011;20331;53.144;8.208;2024-02-14T10:26:40;13.15;;;8.52;;
29162;SDS011;20331;53.144;8.208;2024-02-14T10:32:04;12.05;;;8.90;;
29162;SDS011;20331;53.144;8.208;2024-02-14T10:37:26;14.98;;;8.98;;
29162;SDS011;20331;53.144;8.208;2024-02-14T10:42:50;11.85;;;8.52;;
29162;SDS011;20331;53.144;8.208;2024-02-14T10:48:12;13.10;;;8.73;;
29162;SDS011;20331;53.144;8.208;2024-02-14T10:53:36;14.73;;;9.48;;
29162;SDS011;20331;53.144;8.208;2024-02-14T10:59:04;13.43;;;9.70;;
29162;SDS011;20331;53.144;8.208;2024-02-14T11:15:46;12.93;;;9.63;;
29162;SDS011;20331;53.144;8.208;2024-02-14T11:21:18;12.27;;;9.03;;
29162;SDS011;20331;53.144;8.208;2024-02-14T11:26:49;14.73;;;9.75;;
29162;SDS011;20331;53.144;8.208;2024-02-14T11:32:16;15.65;;;10.27;;
29162;SDS011;20331;53.144;8.208;2024-02-14T11:37:39;11.95;;;8.35;;
29162;SDS011;20331;53.144;8.208;2024-02-14T11:43:01;11.93;;;8.70;;
29162;SDS011;20331;53.144;8.208;2024-02-14T11:48:23;12.80;;;8.48;;
29162;SDS011;20331;53.144;8.208;2024-02-14T11:53:46;15.85;;;8.25;;
29162;SDS011;20331;53.144;8.208;2024-02-14T11:59:08;11.68;;;8.80;;
29162;SDS011;20331;53.144;8.208;2024-02-14T12:04:31;10.75;;;8.00;;
29162;SDS011;20331;53.144;8.208;2024-02-14T12:09:55;10.38;;;7.43;;
29162;SDS011;20331;53.144;8.208;2024-02-14T12:15:17;11.20;;;8.13;;
29162;SDS011;20331;53.144;8.208;2024-02-14T12:20:38;10.63;;;7.40;;
29162;SDS011;20331;53.144;8.208;2024-02-14T12:26:01;11.68;;;7.55;;
29162;SDS011;20331;53.144;8.208;2024-02-14T12:31:24;11.77;;;7.35;;
29162;SDS011;20331;53.144;8.208;2024-02-14T12:36:46;8.35;;;6.57;;
29162;SDS011;20331;53.144;8.208;2024-02-14T12:42:08;9.48;;;6.82;;
29162;SDS011;20331;53.144;8.208;2024-02-14T12:47:30;7.60;;;6.22;;
29162;SDS011;20331;53.144;8.208;2024-02-14T12:58:17;8.85;;;5.22;;
29162;SDS011;20331;53.144;8.208;2024-02-14T13:03:39;7.10;;;6.03;;
29162;SDS011;20331;53.144;8.208;2024-02-14T13:09:01;8.98;;;6.70;;
29162;SDS011;20331;53.144;8.208;2024-02-14T13:14:24;9.65;;;6.53;;
29162;SDS011;20331;53.144;8.208;2024-02-14T13:19:46;10.05;;;7.35;;
29162;SDS011;20331;53.144;8.208;2024-02-14T13:25:11;9.65;;;7.03;;
29162;SDS011;20331;53.144;8.208;2024-02-14T13:30:34;11.07;;;7.57;;
29162;SDS011;20331;53.144;8.208;2024-02-14T13:35:59;10.95;;;7.80;;
29162;SDS011;20331;53.144;8.208;2024-02-14T13:41:20;13.85;;;7.55;;
29162;SDS011;20331;53.144;8.208;2024-02-14T13:46:43;12.60;;;8.38;;
29162;SDS011;20331;53.144;8.208;2024-02-14T13:52:06;14.60;;;8.20;;
29162;SDS011;20331;53.144;8.208;2024-02-14T13:57:28;11.27;;;8.15;;
29162;SDS011;20331;53.144;8.208;2024-02-14T14:02:51;12.13;;;7.90;;
29162;SDS011;20331;53.144;8.208;2024-02-14T14:08:13;10.70;;;8.40;;
29162;SDS011;20331;53.144;8.208;2024-02-14T14:13:37;12.75;;;8.00;;
29162;SDS011;20331;53.144;8.208;2024-02-14T14:18:59;12.45;;;8.25;;
29162;SDS011;20331;53.144;8.208;2024-02-14T14:24:21;12.48;;;8.15;;
29162;SDS011;20331;53.144;8.208;2024-02-14T14:29:44;11.43;;;7.38;;
29162;SDS011;20331;53.144;8.208;2024-02-14T14:35:06;10.35;;;7.18;;
29162;SDS011;20331;53.144;8.208;2024-02-14T14:40:32;9.75;;;7.40;;
29162;SDS011;20331;53.144;8.208;2024-02-14T14:45:54;9.48;;;7.68;;
29162;SDS011;20331;53.144;8.208;2024-02-14T14:51:18;9.50;;;7.25;;
29162;SDS011;20331;53.144;8.208;2024-02-14T14:56:41;15.80;;;8.55;;
29162;SDS011;20331;53.144;8.208;2024-02-14T15:02:03;9.30;;;7.85;;
29162;SDS011;20331;53.144;8.208;2024-02-14T15:07:27;15.63;;;8.05;;
29162;SDS011;20331;53.144;8.208;2024-02-14T15:12:48;16.10;;;8.02;;
29162;SDS011;20331;53.144;8.208;2024-02-14T15:18:10;10.40;;;8.20;;
29162;SDS011;20331;53.144;8.208;2024-02-14T15:23:32;12.60;;;8.20;;
29162;SDS011;20331;53.144;8.208;2024-02-14T15:28:54;12.23;;;8.32;;
29162;SDS011;20331;53.144;8.208;2024-02-14T15:34:38;10.23;;;7.20;;
29162;SDS011;20331;53.144;8.208;2024-02-14T15:40:01;9.77;;;7.50;;
29162;SDS011;20331;53.144;8.208;2024-02-14T15:45:23;11.25;;;7.60;;
29162;SDS011;20331;53.144;8.208;2024-02-14T15:50:45;11.25;;;8.13;;
29162;SDS011;20331;53.144;8.208;2024-02-14T15:56:07;13.68;;;9.18;;
29162;SDS011;20331;53.144;8.208;2024-02-14T16:01:33;13.67;;;10.07;;
29162;SDS011;20331;53.144;8.208;2024-02-14T16:06:54;15.13;;;10.50;;
29162;SDS011;20331;53.144;8.208;2024-02-14T16:12:17;13.43;;;10.27;;
29162;SDS011;20331;53.144;8.208;2024-02-14T16:17:39;13.57;;;9.88;;
29162;SDS011;20331;53.144;8.208;2024-02-14T16:23:01;11.32;;;9.82;;
29162;SDS011;20331;53.144;8.208;2024-02-14T16:28:23;13.00;;;9.68;;
29162;SDS011;20331;53.144;8.208;2024-02-14T16:33:45;13.35;;;10.32;;
29162;SDS011;20331;53.144;8.208;2024-02-14T16:39:07;12.77;;;9.73;;
29162;SDS011;20331;53.144;8.208;2024-02-14T16:44:31;12.68;;;9.85;;
29162;SDS011;20331;53.144;8.208;2024-02-14T16:49:54;12.93;;;10.73;;
29162;SDS011;20331;53.144;8.208;2024-02-14T16:55:17;16.08;;;11.80;;
29162;SDS011;20331;53.144;8.208;2024-02-14T17:00:38;16.08;;;11.45;;
29162;SDS011;20331;53.144;8.208;2024-02-14T17:06:00;15.68;;;12.05;;
29162;SDS011;20331;53.144;8.208;2024-02-14T17:11:25;18.20;;;12.17;;
29162;SDS011;20331;53.144;8.208;2024-02-14T17:16:47;15.38;;;12.20;;
29162;SDS011;20331;53.144;8.208;2024-02-14T17:22:10;17.85;;;12.45;;
29162;SDS011;20331;53.144;8.208;2024-02-14T17:27:45;16.23;;;12.60;;
29162;SDS011;20331;53.144;8.208;2024-02-14T17:33:08;15.73;;;12.05;;
29162;SDS011;20331;53.144;8.208;2024-02-14T17:38:30;17.45;;;12.38;;
29162;SDS011;20331;53.144;8.208;2024-02-14T17:43:53;15.25;;;11.85;;
29162;SDS011;20331;53.144;8.208;2024-02-14T17:49:15;16.17;;;13.07;;
29162;SDS011;20331;53.144;8.208;2024-02-14T17:54:38;17.25;;;12.98;;
29162;SDS011;20331;53.144;8.208;2024-02-14T18:00:00;15.27;;;12.55;;
29162;SDS011;20331;53.144;8.208;2024-02-14T18:05:22;20.40;;;12.70;;
29162;SDS011;20331;53.144;8.208;2024-02-14T18:10:44;18.42;;;13.63;;
29162;SDS011;20331;53.144;8.208;2024-02-14T18:16:07;15.18;;;12.80;;
29162;SDS011;20331;53.144;8.208;2024-02-14T18:21:30;17.10;;;12.90;;
29162;SDS011;20331;53.144;8.208;2024-02-14T18:26:52;19.17;;;13.35;;
29162;SDS011;20331;53.144;8.208;2024-02-14T18:32:14;19.50;;;13.50;;
29162;SDS011;20331;53.144;8.208;2024-02-14T18:37:36;16.90;;;12.27;;
29162;SDS011;20331;53.144;8.208;2024-02-14T18:42:58;17.52;;;12.57;;
29162;SDS011;20331;53.144;8.208;2024-02-14T18:48:20;16.48;;;12.82;;
29162;SDS011;20331;53.144;8.208;2024-02-14T18:53:43;18.10;;;13.48;;
29162;SDS011;20331;53.144;8.208;2024-02-14T18:59:08;16.63;;;12.13;;
29162;SDS011;20331;53.144;8.208;2024-02-14T19:04:31;18.75;;;13.07;;
29162;SDS011;20331;53.144;8.208;2024-02-14T19:09:53;19.75;;;12.80;;
29162;SDS011;20331;53.144;8.208;2024-02-14T19:15:15;17.55;;;12.82;;
29162;SDS011;20331;53.144;8.208;2024-02-14T19:20:37;19.58;;;12.80;;
29162;SDS011;20331;53.144;8.208;2024-02-14T19:25:59;16.00;;;12.77;;
29162;SDS011;20331;53.144;8.208;2024-02-14T19:31:20;16.25;;;12.73;;
29162;SDS011;20331;53.144;8.208;2024-02-14T19:36:42;17.85;;;12.55;;
29162;SDS011;20331;53.144;8.208;2024-02-14T19:42:04;16.45;;;13.00;;
29162;SDS011;20331;53.144;8.208;2024-02-14T19:47:26;16.30;;;12.10;;
29162;SDS011;20331;53.144;8.208;2024-02-14T19:52:50;20.08;;;12.65;;
29162;SDS011;20331;53.144;8.208;2024-02-14T19:58:12;17.50;;;13.23;;
29162;SDS011;20331;53.144;8.208;2024-02-14T20:03:34;19.45;;;12.98;;
29162;SDS011;20331;53.144;8.208;2024-02-14T20:08:55;16.95;;;12.73;;
29162;SDS011;20331;53.144;8.208;2024-02-14T20:14:20;19.30;;;12.77;;
29162;SDS011;20331;53.144;8.208;2024-02-14T20:19:42;20.48;;;13.32;;
29162;SDS011;20331;53.144;8.208;2024-02-14T20:25:04;20.67;;;13.85;;
29162;SDS011;20331;53.144;8.208;2024-02-14T20:30:26;18.55;;;13.90;;
29162;SDS011;20331;53.144;8.208;2024-02-14T20:35:50;20.60;;;14.48;;
29162;SDS011;20331;53.144;8.208;2024-02-14T20:41:13;22.00;;;14.98;;
29162;SDS011;20331;53.144;8.208;2024-02-14T20:46:35;26.50;;;15.02;;
29162;SDS011;20331;53.144;8.208;2024-02-14T20:51:56;22.00;;;15.27;;
29162;SDS011;20331;53.144;8.208;2024-02-14T20:57:18;21.77;;;15.07;;
29162;SDS011;20331;53.144;8.208;2024-02-14T21:02:40;22.52;;;15.15;;
29162;SDS011;20331;53.144;8.208;2024-02-14T21:08:02;20.63;;;14.10;;
29162;SDS011;20331;53.144;8.208;2024-02-14T21:13:23;22.52;;;14.82;;
29162;SDS011;20331;53.144;8.208;2024-02-14T21:18:45;24.35;;;14.55;;
29162;SDS011;20331;53.144;8.208;2024-02-14T21:24:07;21.10;;;14.38;;
29162;SDS011;20331;53.144;8.208;2024-02-14T21:29:29;21.83;;;14.35;;
29162;SDS011;20331;53.144;8.208;2024-02-14T21:34:50;19.15;;;12.80;;
29162;SDS011;20331;53.144;8.208;2024-02-14T21:40:12;19.33;;;12.48;;
29162;SDS011;20331;53.144;8.208;2024-02-14T21:45:35;16.58;;;11.30;;
29162;SDS011;20331;53.144;8.208;2024-02-14T21:50:56;15.85;;;10.82;;
29162;SDS011;20331;53.144;8.208;2024-02-14T21:56:20;14.13;;;10.20;;
29162;SDS011;20331;53.144;8.208;2024-02-14T22:01:42;12.90;;;10.15;;
29162;SDS011;20331;53.144;8.208;2024-02-14T22:07:04;15.50;;;9.52;;
29162;SDS011;20331;53.144;8.208;2024-02-14T22:12:26;13.77;;;9.27;;
29162;SDS011;20331;53.144;8.208;2024-02-14T22:17:47;13.38;;;9.98;;
29162;SDS011;20331;53.144;8.208;2024-02-14T22:23:09;14.73;;;10.07;;
29162;SDS011;20331;53.144;8.208;2024-02-14T22:28:31;14.20;;;10.43;;
29162;SDS011;20331;53.144;8.208;2024-02-14T22:33:56;12.87;;;9.63;;
29162;SDS011;20331;53.144;8.208;2024-02-14T22:39:18;15.73;;;10.07;;
29162;SDS011;20331;53.144;8.208;2024-02-14T22:44:40;13.02;;;10.13;;
29162;SDS011;20331;53.144;8.208;2024-02-14T22:50:02;15.18;;;11.02;;
29162;SDS011;20331;53.144;8.208;2024-02-14T22:55:23;20.73;;;10.43;;
29162;SDS011;20331;53.144;8.208;2024-02-14T23:00:45;15.20;;;10.30;;
29162;SDS011;20331;53.144;8.208;2024-02-14T23:06:07;17.33;;;10.82;;
29162;SDS011;20331;53.144;8.208;2024-02-14T23:11:29;16.52;;;10.98;;
29162;SDS011;20331;53.144;8.208;2024-02-14T23:16:58;14.93;;;10.32;;
29162;SDS011;20331;53.144;8.208;2024-02-14T23:22:20;15.18;;;10.35;;
29162;SDS011;20331;53.144;8.208;2024-02-14T23:27:42;14.73;;;9.95;;
29162;SDS011;20331;53.144;8.208;2024-02-14T23:33:06;15.07;;;10.30;;
29162;SDS011;20331;53.144;8.208;2024-02-14T23:38:33;16.48;;;11.27;;
29162;SDS011;20331;53.144;8.208;2024-02-14T23:43:55;18.25;;;11.25;;
29162;SDS011;20331;53.144;8.208;2024-02-14T23:49:20;20.15;;;11.93;;
29162;SDS011;20331;53.144;8.208;2024-02-14T23:54:42;18.90;;;12.57;;
